sensor_id;sensor_type;location;lat;lon;timestamp;temperature;humidity
210;DHT22;90;48.810;9.120;2023-04-08T00:01:21;8.90;91.30
210;DHT22;90;48.810;9.120;2023-04-08T00:03:49;9.00;91.20
210;DHT22;90;48.810;9.120;2023-04-08T00:06:15;9.00;91.10
210;DHT22;90;48.810;9.120;2023-04-08T00:08:42;9.00;90.90
210;DHT22;90;48.810;9.120;2023-04-08T00:11:09;9.10;90.90
210;DHT22;90;48.810;9.120;2023-04-08T00:13:35;9.10;90.60
210;DHT22;90;48.810;9.120;2023-04-08T00:16:03;9.10;90.70
210;DHT22;90;48.810;9.120;2023-04-08T00:18:30;9.00;90.60
210;DHT22;90;48.810;9.120;2023-04-08T00:20:59;9.00;90.70
210;DHT22;90;48.810;9.120;2023-04-08T00:23:25;8.90;91.20
210;DHT22;90;48.810;9.120;2023-04-08T00:25:53;8.90;91.10
210;DHT22;90;48.810;9.120;2023-04-08T00:28:19;8.90;91.30
210;DHT22;90;48.810;9.120;2023-04-08T00:30:46;8.80;91.40
210;DHT22;90;48.810;9.120;2023-04-08T00:33:13;8.80;91.60
210;DHT22;90;48.810;9.120;2023-04-08T00:35:39;8.80;91.40
210;DHT22;90;48.810;9.120;2023-04-08T00:38:08;8.90;91.40
210;DHT22;90;48.810;9.120;2023-04-08T00:40:35;8.90;91.30
210;DHT22;90;48.810;9.120;2023-04-08T00:43:01;8.80;91.10
210;DHT22;90;48.810;9.120;2023-04-08T00:45:28;8.70;91.50
210;DHT22;90;48.810;9.120;2023-04-08T00:47:55;8.80;91.80
210;DHT22;90;48.810;9.120;2023-04-08T00:50:22;8.70;91.50
210;DHT22;90;48.810;9.120;2023-04-08T00:52:49;8.60;91.90
210;DHT22;90;48.810;9.120;2023-04-08T00:55:17;8.70;92.10
210;DHT22;90;48.810;9.120;2023-04-08T00:57:43;8.70;91.80
210;DHT22;90;48.810;9.120;2023-04-08T01:00:12;8.80;91.80
210;DHT22;90;48.810;9.120;2023-04-08T01:02:44;8.80;91.30
210;DHT22;90;48.810;9.120;2023-04-08T01:05:18;8.70;91.20
210;DHT22;90;48.810;9.120;2023-04-08T01:07:47;8.70;91.30
210;DHT22;90;48.810;9.120;2023-04-08T01:10:19;8.70;91.50
210;DHT22;90;48.810;9.120;2023-04-08T01:12:49;8.70;91.30
210;DHT22;90;48.810;9.120;2023-04-08T01:15:17;8.70;91.20
210;DHT22;90;48.810;9.120;2023-04-08T01:17:45;8.80;91.00
210;DHT22;90;48.810;9.120;2023-04-08T01:20:13;8.80;90.90
210;DHT22;90;48.810;9.120;2023-04-08T01:22:53;8.80;90.80
210;DHT22;90;48.810;9.120;2023-04-08T01:25:28;8.80;91.10
210;DHT22;90;48.810;9.120;2023-04-08T01:27:58;8.70;91.20
210;DHT22;90;48.810;9.120;2023-04-08T01:30:26;8.70;91.50
210;DHT22;90;48.810;9.120;2023-04-08T01:32:55;8.70;91.60
210;DHT22;90;48.810;9.120;2023-04-08T01:35:23;8.60;91.80
210;DHT22;90;48.810;9.120;2023-04-08T01:37:50;8.60;91.80
210;DHT22;90;48.810;9.120;2023-04-08T01:40:18;8.80;91.40
210;DHT22;90;48.810;9.120;2023-04-08T01:42:47;8.80;91.10
210;DHT22;90;48.810;9.120;2023-04-08T01:45:16;8.80;91.00
210;DHT22;90;48.810;9.120;2023-04-08T01:47:44;8.70;91.30
210;DHT22;90;48.810;9.120;2023-04-08T01:50:13;8.60;91.70
210;DHT22;90;48.810;9.120;2023-04-08T01:52:42;8.60;91.60
210;DHT22;90;48.810;9.120;2023-04-08T01:55:10;8.60;91.70
210;DHT22;90;48.810;9.120;2023-04-08T01:57:38;8.60;91.70
210;DHT22;90;48.810;9.120;2023-04-08T02:00:07;8.50;91.80
210;DHT22;90;48.810;9.120;2023-04-08T02:02:37;8.50;92.30
210;DHT22;90;48.810;9.120;2023-04-08T02:05:06;8.50;92.20
210;DHT22;90;48.810;9.120;2023-04-08T02:07:34;8.40;92.50
210;DHT22;90;48.810;9.120;2023-04-08T02:10:01;8.40;92.50
210;DHT22;90;48.810;9.120;2023-04-08T02:12:27;8.40;92.40
210;DHT22;90;48.810;9.120;2023-04-08T02:14:54;8.40;92.60
210;DHT22;90;48.810;9.120;2023-04-08T02:17:32;8.50;92.60
210;DHT22;90;48.810;9.120;2023-04-08T02:20:05;8.50;92.40
210;DHT22;90;48.810;9.120;2023-04-08T02:22:38;8.50;92.20
210;DHT22;90;48.810;9.120;2023-04-08T02:25:12;8.60;91.80
210;DHT22;90;48.810;9.120;2023-04-08T02:27:39;8.50;91.90
210;DHT22;90;48.810;9.120;2023-04-08T02:30:09;8.50;91.90
210;DHT22;90;48.810;9.120;2023-04-08T02:32:36;8.50;92.00
210;DHT22;90;48.810;9.120;2023-04-08T02:35:06;8.50;91.90
210;DHT22;90;48.810;9.120;2023-04-08T02:37:33;8.50;91.50
210;DHT22;90;48.810;9.120;2023-04-08T02:40:00;8.50;91.50
210;DHT22;90;48.810;9.120;2023-04-08T02:42:26;8.50;91.70
210;DHT22;90;48.810;9.120;2023-04-08T02:44:53;8.50;91.70
210;DHT22;90;48.810;9.120;2023-04-08T02:47:20;8.40;91.30
210;DHT22;90;48.810;9.120;2023-04-08T02:49:47;8.40;91.60
210;DHT22;90;48.810;9.120;2023-04-08T02:52:18;8.40;91.40
210;DHT22;90;48.810;9.120;2023-04-08T02:54:45;8.40;91.10
210;DHT22;90;48.810;9.120;2023-04-08T02:57:12;8.40;91.20
210;DHT22;90;48.810;9.120;2023-04-08T02:59:38;8.30;91.30
210;DHT22;90;48.810;9.120;2023-04-08T03:02:05;8.30;91.60
210;DHT22;90;48.810;9.120;2023-04-08T03:04:32;8.20;92.10
210;DHT22;90;48.810;9.120;2023-04-08T03:06:58;8.20;92.10
210;DHT22;90;48.810;9.120;2023-04-08T03:09:26;8.30;92.30
210;DHT22;90;48.810;9.120;2023-04-08T03:11:53;8.30;91.80
210;DHT22;90;48.810;9.120;2023-04-08T03:14:20;8.20;91.80
210;DHT22;90;48.810;9.120;2023-04-08T03:16:47;8.10;92.00
210;DHT22;90;48.810;9.120;2023-04-08T03:19:14;8.10;92.20
210;DHT22;90;48.810;9.120;2023-04-08T03:21:40;8.10;92.10
210;DHT22;90;48.810;9.120;2023-04-08T03:24:07;8.10;92.40
210;DHT22;90;48.810;9.120;2023-04-08T03:26:35;8.20;92.30
210;DHT22;90;48.810;9.120;2023-04-08T03:29:02;8.10;92.20
210;DHT22;90;48.810;9.120;2023-04-08T03:31:29;8.10;92.40
210;DHT22;90;48.810;9.120;2023-04-08T03:33:55;8.10;92.50
210;DHT22;90;48.810;9.120;2023-04-08T03:36:22;8.10;92.40
210;DHT22;90;48.810;9.120;2023-04-08T03:38:49;8.20;92.20
210;DHT22;90;48.810;9.120;2023-04-08T03:41:16;8.30;91.80
210;DHT22;90;48.810;9.120;2023-04-08T03:43:44;8.30;91.50
210;DHT22;90;48.810;9.120;2023-04-08T03:46:11;8.40;91.20
210;DHT22;90;48.810;9.120;2023-04-08T03:48:37;8.40;91.00
210;DHT22;90;48.810;9.120;2023-04-08T03:51:04;8.50;90.60
210;DHT22;90;48.810;9.120;2023-04-08T03:53:31;8.50;90.40
210;DHT22;90;48.810;9.120;2023-04-08T03:55:58;8.50;90.30
210;DHT22;90;48.810;9.120;2023-04-08T03:58:27;8.50;90.50
210;DHT22;90;48.810;9.120;2023-04-08T04:00:55;8.50;90.50
210;DHT22;90;48.810;9.120;2023-04-08T04:03:21;8.50;90.30
210;DHT22;90;48.810;9.120;2023-04-08T04:05:49;8.60;90.30
210;DHT22;90;48.810;9.120;2023-04-08T04:08:15;8.50;90.50
210;DHT22;90;48.810;9.120;2023-04-08T04:10:42;8.40;90.90
210;DHT22;90;48.810;9.120;2023-04-08T04:13:09;8.40;91.00
210;DHT22;90;48.810;9.120;2023-04-08T04:15:37;8.40;91.00
210;DHT22;90;48.810;9.120;2023-04-08T04:18:05;8.40;91.00
210;DHT22;90;48.810;9.120;2023-04-08T04:20:34;8.40;90.80
210;DHT22;90;48.810;9.120;2023-04-08T04:23:02;8.50;90.50
210;DHT22;90;48.810;9.120;2023-04-08T04:25:29;8.50;90.50
210;DHT22;90;48.810;9.120;2023-04-08T04:27:55;8.40;90.60
210;DHT22;90;48.810;9.120;2023-04-08T04:30:22;8.30;90.70
210;DHT22;90;48.810;9.120;2023-04-08T04:32:49;8.30;91.30
210;DHT22;90;48.810;9.120;2023-04-08T04:35:18;8.20;91.40
210;DHT22;90;48.810;9.120;2023-04-08T04:37:44;8.20;91.50
210;DHT22;90;48.810;9.120;2023-04-08T04:40:12;8.20;91.70
210;DHT22;90;48.810;9.120;2023-04-08T04:42:38;8.20;91.30
210;DHT22;90;48.810;9.120;2023-04-08T04:45:07;8.20;91.40
210;DHT22;90;48.810;9.120;2023-04-08T04:47:33;8.20;91.40
210;DHT22;90;48.810;9.120;2023-04-08T04:50:00;8.30;90.70
210;DHT22;90;48.810;9.120;2023-04-08T04:52:28;8.30;90.90
210;DHT22;90;48.810;9.120;2023-04-08T04:54:56;8.30;90.80
210;DHT22;90;48.810;9.120;2023-04-08T04:57:23;8.20;90.60
210;DHT22;90;48.810;9.120;2023-04-08T04:59:50;8.20;90.80
210;DHT22;90;48.810;9.120;2023-04-08T05:02:16;8.20;90.90
210;DHT22;90;48.810;9.120;2023-04-08T05:04:43;8.20;91.10
210;DHT22;90;48.810;9.120;2023-04-08T05:07:10;8.20;91.10
210;DHT22;90;48.810;9.120;2023-04-08T05:09:38;8.20;91.10
210;DHT22;90;48.810;9.120;2023-04-08T05:12:05;8.20;91.10
210;DHT22;90;48.810;9.120;2023-04-08T05:14:32;8.30;90.80
210;DHT22;90;48.810;9.120;2023-04-08T05:16:58;8.30;90.60
210;DHT22;90;48.810;9.120;2023-04-08T05:19:25;8.20;91.00
210;DHT22;90;48.810;9.120;2023-04-08T05:21:52;8.30;91.00
210;DHT22;90;48.810;9.120;2023-04-08T05:24:19;8.30;91.00
210;DHT22;90;48.810;9.120;2023-04-08T05:26:47;8.60;95.00
210;DHT22;90;48.810;9.120;2023-04-08T05:29:16;8.70;92.40
210;DHT22;90;48.810;9.120;2023-04-08T05:31:43;8.70;90.80
210;DHT22;90;48.810;9.120;2023-04-08T05:34:10;8.70;90.10
210;DHT22;90;48.810;9.120;2023-04-08T05:36:37;8.60;89.40
210;DHT22;90;48.810;9.120;2023-04-08T05:39:04;8.60;89.50
210;DHT22;90;48.810;9.120;2023-04-08T05:41:30;8.50;89.80
210;DHT22;90;48.810;9.120;2023-04-08T05:43:58;8.40;90.20
210;DHT22;90;48.810;9.120;2023-04-08T05:46:25;8.30;90.60
210;DHT22;90;48.810;9.120;2023-04-08T05:48:52;8.30;91.30
210;DHT22;90;48.810;9.120;2023-04-08T05:51:18;8.30;90.90
210;DHT22;90;48.810;9.120;2023-04-08T05:53:45;8.30;90.90
210;DHT22;90;48.810;9.120;2023-04-08T05:56:12;8.30;91.10
210;DHT22;90;48.810;9.120;2023-04-08T05:58:38;8.30;91.20
210;DHT22;90;48.810;9.120;2023-04-08T06:01:06;8.30;91.30
210;DHT22;90;48.810;9.120;2023-04-08T06:03:33;8.30;90.80
210;DHT22;90;48.810;9.120;2023-04-08T06:06:00;8.30;91.10
210;DHT22;90;48.810;9.120;2023-04-08T06:08:27;8.20;91.40
210;DHT22;90;48.810;9.120;2023-04-08T06:10:53;8.20;91.60
210;DHT22;90;48.810;9.120;2023-04-08T06:13:20;8.10;91.80
210;DHT22;90;48.810;9.120;2023-04-08T06:15:47;8.10;92.20
210;DHT22;90;48.810;9.120;2023-04-08T06:18:16;8.20;91.70
210;DHT22;90;48.810;9.120;2023-04-08T06:20:43;8.40;93.00
210;DHT22;90;48.810;9.120;2023-04-08T06:23:10;8.40;91.50
210;DHT22;90;48.810;9.120;2023-04-08T06:25:37;8.30;91.40
210;DHT22;90;48.810;9.120;2023-04-08T06:28:04;8.30;91.80
210;DHT22;90;48.810;9.120;2023-04-08T06:30:31;8.30;91.90
210;DHT22;90;48.810;9.120;2023-04-08T06:32:57;8.30;91.70
210;DHT22;90;48.810;9.120;2023-04-08T06:35:26;8.20;91.90
210;DHT22;90;48.810;9.120;2023-04-08T06:37:52;8.10;92.10
210;DHT22;90;48.810;9.120;2023-04-08T06:40:19;8.10;92.70
210;DHT22;90;48.810;9.120;2023-04-08T06:42:46;8.10;92.80
210;DHT22;90;48.810;9.120;2023-04-08T06:45:13;8.10;92.60
210;DHT22;90;48.810;9.120;2023-04-08T06:47:40;8.20;92.50
210;DHT22;90;48.810;9.120;2023-04-08T06:50:07;8.20;92.50
210;DHT22;90;48.810;9.120;2023-04-08T06:52:35;8.20;92.70
210;DHT22;90;48.810;9.120;2023-04-08T06:55:02;8.20;92.70
210;DHT22;90;48.810;9.120;2023-04-08T06:57:29;8.30;92.30
210;DHT22;90;48.810;9.120;2023-04-08T06:59:55;8.30;92.40
210;DHT22;90;48.810;9.120;2023-04-08T07:02:22;8.30;91.80
210;DHT22;90;48.810;9.120;2023-04-08T07:04:49;8.30;92.20
210;DHT22;90;48.810;9.120;2023-04-08T07:07:15;8.30;91.90
210;DHT22;90;48.810;9.120;2023-04-08T07:09:44;8.40;91.80
210;DHT22;90;48.810;9.120;2023-04-08T07:12:11;8.50;91.50
210;DHT22;90;48.810;9.120;2023-04-08T07:14:38;8.40;91.10
210;DHT22;90;48.810;9.120;2023-04-08T07:17:04;8.50;91.00
210;DHT22;90;48.810;9.120;2023-04-08T07:19:31;8.60;91.10
210;DHT22;90;48.810;9.120;2023-04-08T07:21:58;8.60;90.30
210;DHT22;90;48.810;9.120;2023-04-08T07:24:25;8.60;90.40
210;DHT22;90;48.810;9.120;2023-04-08T07:26:53;8.70;90.40
210;DHT22;90;48.810;9.120;2023-04-08T07:29:20;8.70;89.90
210;DHT22;90;48.810;9.120;2023-04-08T07:31:47;8.70;90.00
210;DHT22;90;48.810;9.120;2023-04-08T07:34:14;8.80;89.80
210;DHT22;90;48.810;9.120;2023-04-08T07:36:41;8.80;89.80
210;DHT22;90;48.810;9.120;2023-04-08T07:39:07;8.80;89.60
210;DHT22;90;48.810;9.120;2023-04-08T07:41:34;8.90;89.70
210;DHT22;90;48.810;9.120;2023-04-08T07:44:02;8.90;89.50
210;DHT22;90;48.810;9.120;2023-04-08T07:46:29;8.90;89.90
210;DHT22;90;48.810;9.120;2023-04-08T07:48:55;8.90;89.80
210;DHT22;90;48.810;9.120;2023-04-08T07:51:22;8.90;89.60
210;DHT22;90;48.810;9.120;2023-04-08T07:53:49;9.00;88.90
210;DHT22;90;48.810;9.120;2023-04-08T07:56:16;9.00;88.90
210;DHT22;90;48.810;9.120;2023-04-08T07:58:43;9.10;88.60
210;DHT22;90;48.810;9.120;2023-04-08T08:01:19;9.10;88.80
210;DHT22;90;48.810;9.120;2023-04-08T08:03:46;9.10;88.80
210;DHT22;90;48.810;9.120;2023-04-08T08:06:13;9.30;87.40
210;DHT22;90;48.810;9.120;2023-04-08T08:08:40;9.20;86.50
210;DHT22;90;48.810;9.120;2023-04-08T08:11:06;9.30;86.30
210;DHT22;90;48.810;9.120;2023-04-08T08:13:33;9.30;85.90
210;DHT22;90;48.810;9.120;2023-04-08T08:16:00;9.30;86.00
210;DHT22;90;48.810;9.120;2023-04-08T08:18:28;9.40;85.40
210;DHT22;90;48.810;9.120;2023-04-08T08:20:55;9.40;84.70
210;DHT22;90;48.810;9.120;2023-04-08T08:23:21;9.40;84.70
210;DHT22;90;48.810;9.120;2023-04-08T08:25:49;9.40;85.00
210;DHT22;90;48.810;9.120;2023-04-08T08:28:16;9.40;84.60
210;DHT22;90;48.810;9.120;2023-04-08T08:30:43;9.40;84.20
210;DHT22;90;48.810;9.120;2023-04-08T08:33:09;9.50;84.10
210;DHT22;90;48.810;9.120;2023-04-08T08:35:37;9.50;83.40
210;DHT22;90;48.810;9.120;2023-04-08T08:38:04;9.60;83.70
210;DHT22;90;48.810;9.120;2023-04-08T08:40:32;9.80;83.30
210;DHT22;90;48.810;9.120;2023-04-08T08:42:58;10.00;81.50
210;DHT22;90;48.810;9.120;2023-04-08T08:45:25;9.90;80.80
210;DHT22;90;48.810;9.120;2023-04-08T08:47:52;9.80;81.10
210;DHT22;90;48.810;9.120;2023-04-08T08:50:19;9.90;81.50
210;DHT22;90;48.810;9.120;2023-04-08T08:52:49;9.90;82.00
210;DHT22;90;48.810;9.120;2023-04-08T08:55:17;9.90;81.10
210;DHT22;90;48.810;9.120;2023-04-08T08:57:44;10.00;82.10
210;DHT22;90;48.810;9.120;2023-04-08T09:00:13;10.00;82.10
210;DHT22;90;48.810;9.120;2023-04-08T09:02:40;10.00;82.10
210;DHT22;90;48.810;9.120;2023-04-08T09:05:08;10.10;80.50
210;DHT22;90;48.810;9.120;2023-04-08T09:07:35;10.10;79.80
210;DHT22;90;48.810;9.120;2023-04-08T09:10:07;10.20;80.10
210;DHT22;90;48.810;9.120;2023-04-08T09:12:34;10.30;78.30
210;DHT22;90;48.810;9.120;2023-04-08T09:15:18;10.30;77.30
210;DHT22;90;48.810;9.120;2023-04-08T09:17:44;10.30;77.50
210;DHT22;90;48.810;9.120;2023-04-08T09:20:12;10.40;77.80
210;DHT22;90;48.810;9.120;2023-04-08T09:22:55;10.50;77.50
210;DHT22;90;48.810;9.120;2023-04-08T09:25:24;10.60;77.70
210;DHT22;90;48.810;9.120;2023-04-08T09:27:51;10.50;76.60
210;DHT22;90;48.810;9.120;2023-04-08T09:30:20;10.50;76.60
210;DHT22;90;48.810;9.120;2023-04-08T09:32:47;10.60;76.40
210;DHT22;90;48.810;9.120;2023-04-08T09:35:14;10.70;76.50
210;DHT22;90;48.810;9.120;2023-04-08T09:37:41;10.60;76.90
210;DHT22;90;48.810;9.120;2023-04-08T09:40:09;10.70;76.40
210;DHT22;90;48.810;9.120;2023-04-08T09:42:40;10.70;76.20
210;DHT22;90;48.810;9.120;2023-04-08T09:45:09;10.60;76.00
210;DHT22;90;48.810;9.120;2023-04-08T09:47:46;10.80;75.40
210;DHT22;90;48.810;9.120;2023-04-08T09:50:19;10.80;75.60
210;DHT22;90;48.810;9.120;2023-04-08T09:52:48;10.80;74.60
210;DHT22;90;48.810;9.120;2023-04-08T09:55:21;10.90;72.80
210;DHT22;90;48.810;9.120;2023-04-08T09:57:53;11.00;70.10
210;DHT22;90;48.810;9.120;2023-04-08T10:00:24;11.00;69.30
210;DHT22;90;48.810;9.120;2023-04-08T10:02:55;11.10;69.80
210;DHT22;90;48.810;9.120;2023-04-08T10:05:26;11.20;68.00
210;DHT22;90;48.810;9.120;2023-04-08T10:07:55;11.20;67.50
210;DHT22;90;48.810;9.120;2023-04-08T10:10:22;11.30;66.80
210;DHT22;90;48.810;9.120;2023-04-08T10:12:51;11.30;67.40
210;DHT22;90;48.810;9.120;2023-04-08T10:15:22;11.30;64.60
210;DHT22;90;48.810;9.120;2023-04-08T10:17:49;11.20;63.40
210;DHT22;90;48.810;9.120;2023-04-08T10:20:40;11.20;64.00
210;DHT22;90;48.810;9.120;2023-04-08T10:23:08;11.30;64.40
210;DHT22;90;48.810;9.120;2023-04-08T10:25:36;11.40;63.50
210;DHT22;90;48.810;9.120;2023-04-08T10:28:25;11.50;64.30
210;DHT22;90;48.810;9.120;2023-04-08T10:30:53;11.40;64.60
210;DHT22;90;48.810;9.120;2023-04-08T10:33:22;11.20;62.30
210;DHT22;90;48.810;9.120;2023-04-08T10:35:52;11.10;60.80
210;DHT22;90;48.810;9.120;2023-04-08T10:38:20;11.00;60.80
210;DHT22;90;48.810;9.120;2023-04-08T10:40:48;11.00;61.80
210;DHT22;90;48.810;9.120;2023-04-08T10:43:16;10.90;62.60
210;DHT22;90;48.810;9.120;2023-04-08T10:45:44;11.00;61.90
210;DHT22;90;48.810;9.120;2023-04-08T10:48:17;11.10;60.90
210;DHT22;90;48.810;9.120;2023-04-08T10:50:50;11.00;61.40
210;DHT22;90;48.810;9.120;2023-04-08T10:53:17;10.90;62.10
210;DHT22;90;48.810;9.120;2023-04-08T10:55:44;10.90;62.60
210;DHT22;90;48.810;9.120;2023-04-08T10:58:11;10.90;62.20
210;DHT22;90;48.810;9.120;2023-04-08T11:00:38;10.90;63.00
210;DHT22;90;48.810;9.120;2023-04-08T11:03:08;10.80;64.10
210;DHT22;90;48.810;9.120;2023-04-08T11:05:35;10.80;64.40
210;DHT22;90;48.810;9.120;2023-04-08T11:08:03;10.80;64.10
210;DHT22;90;48.810;9.120;2023-04-08T11:10:32;10.90;65.00
210;DHT22;90;48.810;9.120;2023-04-08T11:13:02;10.80;65.10
210;DHT22;90;48.810;9.120;2023-04-08T11:15:29;10.70;64.80
210;DHT22;90;48.810;9.120;2023-04-08T11:17:57;10.70;65.20
210;DHT22;90;48.810;9.120;2023-04-08T11:20:25;10.70;65.30
210;DHT22;90;48.810;9.120;2023-04-08T11:22:52;10.80;65.10
210;DHT22;90;48.810;9.120;2023-04-08T11:25:18;10.90;64.40
210;DHT22;90;48.810;9.120;2023-04-08T11:27:46;10.80;64.50
210;DHT22;90;48.810;9.120;2023-04-08T11:30:14;10.70;64.60
210;DHT22;90;48.810;9.120;2023-04-08T11:32:41;10.60;65.30
210;DHT22;90;48.810;9.120;2023-04-08T11:35:08;10.60;65.30
210;DHT22;90;48.810;9.120;2023-04-08T11:37:37;10.60;64.90
210;DHT22;90;48.810;9.120;2023-04-08T11:40:08;10.60;64.70
210;DHT22;90;48.810;9.120;2023-04-08T11:42:36;10.70;64.70
210;DHT22;90;48.810;9.120;2023-04-08T11:45:10;10.70;63.90
210;DHT22;90;48.810;9.120;2023-04-08T11:47:37;10.70;63.40
210;DHT22;90;48.810;9.120;2023-04-08T11:50:05;10.80;63.60
210;DHT22;90;48.810;9.120;2023-04-08T11:52:44;10.70;64.20
210;DHT22;90;48.810;9.120;2023-04-08T11:55:12;10.80;64.50
210;DHT22;90;48.810;9.120;2023-04-08T11:57:47;10.80;64.10
210;DHT22;90;48.810;9.120;2023-04-08T12:00:14;10.80;64.00
210;DHT22;90;48.810;9.120;2023-04-08T12:02:40;10.80;64.50
210;DHT22;90;48.810;9.120;2023-04-08T12:05:08;10.90;65.10
210;DHT22;90;48.810;9.120;2023-04-08T12:07:35;10.90;65.20
210;DHT22;90;48.810;9.120;2023-04-08T12:10:04;10.90;64.60
210;DHT22;90;48.810;9.120;2023-04-08T12:12:30;10.90;64.10
210;DHT22;90;48.810;9.120;2023-04-08T12:14:57;11.00;64.30
210;DHT22;90;48.810;9.120;2023-04-08T12:17:24;11.00;64.80
210;DHT22;90;48.810;9.120;2023-04-08T12:19:51;11.10;64.30
210;DHT22;90;48.810;9.120;2023-04-08T12:22:18;11.10;63.60
210;DHT22;90;48.810;9.120;2023-04-08T12:24:44;11.00;64.20
210;DHT22;90;48.810;9.120;2023-04-08T12:27:12;11.00;64.10
210;DHT22;90;48.810;9.120;2023-04-08T12:29:40;11.00;65.20
210;DHT22;90;48.810;9.120;2023-04-08T12:32:08;11.00;65.10
210;DHT22;90;48.810;9.120;2023-04-08T12:34:34;10.90;64.70
210;DHT22;90;48.810;9.120;2023-04-08T12:37:01;10.80;64.90
210;DHT22;90;48.810;9.120;2023-04-08T12:39:28;10.80;65.00
210;DHT22;90;48.810;9.120;2023-04-08T12:41:54;10.70;65.00
210;DHT22;90;48.810;9.120;2023-04-08T12:44:22;10.70;65.00
210;DHT22;90;48.810;9.120;2023-04-08T12:46:49;10.70;65.20
210;DHT22;90;48.810;9.120;2023-04-08T12:49:16;10.60;65.60
210;DHT22;90;48.810;9.120;2023-04-08T12:51:43;10.60;65.30
210;DHT22;90;48.810;9.120;2023-04-08T12:54:10;10.60;65.30
210;DHT22;90;48.810;9.120;2023-04-08T12:56:36;10.70;65.80
210;DHT22;90;48.810;9.120;2023-04-08T12:59:03;10.80;65.70
210;DHT22;90;48.810;9.120;2023-04-08T13:01:31;10.80;65.70
210;DHT22;90;48.810;9.120;2023-04-08T13:03:58;10.80;65.30
210;DHT22;90;48.810;9.120;2023-04-08T13:06:25;10.80;66.20
210;DHT22;90;48.810;9.120;2023-04-08T13:08:52;10.80;65.30
210;DHT22;90;48.810;9.120;2023-04-08T13:11:18;10.90;65.10
210;DHT22;90;48.810;9.120;2023-04-08T13:13:45;10.90;65.80
210;DHT22;90;48.810;9.120;2023-04-08T13:16:12;10.90;65.80
210;DHT22;90;48.810;9.120;2023-04-08T13:18:41;10.90;64.70
210;DHT22;90;48.810;9.120;2023-04-08T13:21:08;10.80;65.20
210;DHT22;90;48.810;9.120;2023-04-08T13:23:35;10.80;65.40
210;DHT22;90;48.810;9.120;2023-04-08T13:26:02;10.80;65.60
210;DHT22;90;48.810;9.120;2023-04-08T13:28:28;10.80;65.20
210;DHT22;90;48.810;9.120;2023-04-08T13:30:55;10.90;64.80
210;DHT22;90;48.810;9.120;2023-04-08T13:33:22;10.90;65.20
210;DHT22;90;48.810;9.120;2023-04-08T13:35:50;10.80;65.80
210;DHT22;90;48.810;9.120;2023-04-08T13:38:17;10.90;65.40
210;DHT22;90;48.810;9.120;2023-04-08T13:40:44;10.90;65.70
210;DHT22;90;48.810;9.120;2023-04-08T13:43:11;11.00;65.40
210;DHT22;90;48.810;9.120;2023-04-08T13:45:38;11.10;65.60
210;DHT22;90;48.810;9.120;2023-04-08T13:48:06;11.20;65.20
210;DHT22;90;48.810;9.120;2023-04-08T13:50:34;11.20;65.00
210;DHT22;90;48.810;9.120;2023-04-08T13:53:02;11.20;65.60
210;DHT22;90;48.810;9.120;2023-04-08T13:55:29;11.20;65.40
210;DHT22;90;48.810;9.120;2023-04-08T13:57:55;11.20;65.60
210;DHT22;90;48.810;9.120;2023-04-08T14:00:22;11.30;65.10
210;DHT22;90;48.810;9.120;2023-04-08T14:02:49;11.20;65.50
210;DHT22;90;48.810;9.120;2023-04-08T14:05:16;11.20;65.40
210;DHT22;90;48.810;9.120;2023-04-08T14:07:43;11.20;65.60
210;DHT22;90;48.810;9.120;2023-04-08T14:10:11;11.30;66.20
210;DHT22;90;48.810;9.120;2023-04-08T14:12:40;11.40;65.70
210;DHT22;90;48.810;9.120;2023-04-08T14:15:08;11.40;65.30
210;DHT22;90;48.810;9.120;2023-04-08T14:17:35;11.50;65.60
210;DHT22;90;48.810;9.120;2023-04-08T14:20:02;11.60;65.40
210;DHT22;90;48.810;9.120;2023-04-08T14:22:30;11.60;65.70
210;DHT22;90;48.810;9.120;2023-04-08T14:24:56;11.80;65.00
210;DHT22;90;48.810;9.120;2023-04-08T14:27:24;11.70;64.90
210;DHT22;90;48.810;9.120;2023-04-08T14:29:52;11.90;64.20
210;DHT22;90;48.810;9.120;2023-04-08T14:32:19;12.00;63.60
210;DHT22;90;48.810;9.120;2023-04-08T14:34:46;12.00;63.50
210;DHT22;90;48.810;9.120;2023-04-08T14:37:13;12.00;63.60
210;DHT22;90;48.810;9.120;2023-04-08T14:39:42;11.80;64.40
210;DHT22;90;48.810;9.120;2023-04-08T14:42:08;11.90;64.10
210;DHT22;90;48.810;9.120;2023-04-08T14:44:37;11.90;63.60
210;DHT22;90;48.810;9.120;2023-04-08T14:47:04;11.90;63.90
210;DHT22;90;48.810;9.120;2023-04-08T14:49:30;11.80;64.40
210;DHT22;90;48.810;9.120;2023-04-08T14:51:57;11.70;65.30
210;DHT22;90;48.810;9.120;2023-04-08T14:54:24;11.70;65.30
210;DHT22;90;48.810;9.120;2023-04-08T14:56:51;11.60;65.00
210;DHT22;90;48.810;9.120;2023-04-08T14:59:18;11.60;65.60
210;DHT22;90;48.810;9.120;2023-04-08T15:01:46;11.50;65.90
210;DHT22;90;48.810;9.120;2023-04-08T15:04:13;11.40;66.20
210;DHT22;90;48.810;9.120;2023-04-08T15:06:40;11.40;65.10
210;DHT22;90;48.810;9.120;2023-04-08T15:09:07;11.30;64.40
210;DHT22;90;48.810;9.120;2023-04-08T15:11:34;11.20;64.40
210;DHT22;90;48.810;9.120;2023-04-08T15:14:00;11.10;65.00
210;DHT22;90;48.810;9.120;2023-04-08T15:16:27;11.10;65.00
210;DHT22;90;48.810;9.120;2023-04-08T15:18:55;11.10;64.90
210;DHT22;90;48.810;9.120;2023-04-08T15:21:24;11.10;65.10
210;DHT22;90;48.810;9.120;2023-04-08T15:23:51;11.10;65.20
210;DHT22;90;48.810;9.120;2023-04-08T15:26:17;11.10;65.60
210;DHT22;90;48.810;9.120;2023-04-08T15:28:44;11.20;65.00
210;DHT22;90;48.810;9.120;2023-04-08T15:31:11;11.20;64.20
210;DHT22;90;48.810;9.120;2023-04-08T15:33:38;11.20;64.70
210;DHT22;90;48.810;9.120;2023-04-08T15:36:08;11.20;65.10
210;DHT22;90;48.810;9.120;2023-04-08T15:38:35;11.20;65.30
210;DHT22;90;48.810;9.120;2023-04-08T15:41:02;11.10;65.60
210;DHT22;90;48.810;9.120;2023-04-08T15:43:29;11.00;65.90
210;DHT22;90;48.810;9.120;2023-04-08T15:45:56;11.10;65.60
210;DHT22;90;48.810;9.120;2023-04-08T15:48:22;10.90;65.90
210;DHT22;90;48.810;9.120;2023-04-08T15:50:49;10.90;66.30
210;DHT22;90;48.810;9.120;2023-04-08T15:53:17;10.90;66.90
210;DHT22;90;48.810;9.120;2023-04-08T15:55:44;10.90;66.80
210;DHT22;90;48.810;9.120;2023-04-08T15:58:11;10.90;66.90
210;DHT22;90;48.810;9.120;2023-04-08T16:00:38;10.90;67.30
210;DHT22;90;48.810;9.120;2023-04-08T16:03:04;10.90;66.90
210;DHT22;90;48.810;9.120;2023-04-08T16:05:35;10.90;67.80
210;DHT22;90;48.810;9.120;2023-04-08T16:08:04;10.90;67.90
210;DHT22;90;48.810;9.120;2023-04-08T16:10:32;10.90;68.10
210;DHT22;90;48.810;9.120;2023-04-08T16:12:59;10.80;67.90
210;DHT22;90;48.810;9.120;2023-04-08T16:15:25;10.90;67.90
210;DHT22;90;48.810;9.120;2023-04-08T16:17:52;10.80;68.10
210;DHT22;90;48.810;9.120;2023-04-08T16:20:19;10.80;68.10
210;DHT22;90;48.810;9.120;2023-04-08T16:22:46;10.80;68.10
210;DHT22;90;48.810;9.120;2023-04-08T16:25:14;10.80;68.40
210;DHT22;90;48.810;9.120;2023-04-08T16:27:42;10.80;68.90
210;DHT22;90;48.810;9.120;2023-04-08T16:30:09;10.80;69.20
210;DHT22;90;48.810;9.120;2023-04-08T16:32:36;10.80;68.70
210;DHT22;90;48.810;9.120;2023-04-08T16:35:04;10.80;68.20
210;DHT22;90;48.810;9.120;2023-04-08T16:37:31;10.80;68.50
210;DHT22;90;48.810;9.120;2023-04-08T16:39:58;10.70;69.10
210;DHT22;90;48.810;9.120;2023-04-08T16:42:25;10.70;69.00
210;DHT22;90;48.810;9.120;2023-04-08T16:44:55;10.60;69.40
210;DHT22;90;48.810;9.120;2023-04-08T16:47:24;10.60;69.60
210;DHT22;90;48.810;9.120;2023-04-08T16:49:51;10.70;69.50
210;DHT22;90;48.810;9.120;2023-04-08T16:52:17;10.60;70.50
210;DHT22;90;48.810;9.120;2023-04-08T16:54:44;10.50;70.60
210;DHT22;90;48.810;9.120;2023-04-08T16:57:11;10.50;70.80
210;DHT22;90;48.810;9.120;2023-04-08T16:59:38;10.50;70.80
210;DHT22;90;48.810;9.120;2023-04-08T17:02:08;10.50;70.80
210;DHT22;90;48.810;9.120;2023-04-08T17:04:35;10.50;71.10